createdAt,value
2019-04-16T00:00:11.831Z,91.97
2019-04-16T00:01:11.279Z,91.86
2019-04-16T00:02:08.978Z,92.38
2019-04-16T00:03:08.952Z,92.53
2019-04-16T00:04:08.942Z,92.11
2019-04-16T00:05:08.907Z,92.84
2019-04-16T00:06:08.897Z,92.74
2019-04-16T00:07:08.885Z,93.04
2019-04-16T00:08:26.544Z,92.63
2019-04-16T00:09:09.865Z,92.84
2019-04-16T00:10:08.859Z,92.94
2019-04-16T00:11:08.881Z,92.84
2019-04-16T00:12:08.853Z,92.74
2019-04-16T00:13:08.827Z,93.77
2019-04-16T00:14:08.833Z,93.77
2019-04-16T00:15:08.828Z,93.40
2019-04-16T00:16:12.705Z,93.60
2019-04-16T00:17:08.792Z,93.29
2019-04-16T00:18:08.883Z,93.40
2019-04-16T00:19:08.763Z,93.40
2019-04-16T00:20:08.798Z,93.29
2019-04-16T00:21:09.881Z,93.29
2019-04-16T00:22:11.558Z,93.40
2019-04-16T00:23:08.745Z,93.40
2019-04-16T00:24:08.727Z,93.40
2019-04-16T00:25:08.707Z,93.71
2019-04-16T00:26:08.732Z,93.66
2019-04-16T00:27:08.719Z,93.19
2019-04-16T00:28:08.693Z,93.81
2019-04-16T00:29:08.655Z,93.40
2019-04-16T00:30:08.648Z,93.60
2019-04-16T00:31:08.703Z,93.29
2019-04-16T00:32:09.692Z,93.29
2019-04-16T00:33:10.821Z,94.12
2019-04-16T00:34:08.600Z,93.08
2019-04-16T00:35:08.582Z,93.96
2019-04-16T00:36:08.584Z,93.85
2019-04-16T00:37:08.569Z,93.75
2019-04-16T00:38:08.668Z,93.96
2019-04-16T00:39:08.564Z,94.17
2019-04-16T00:40:08.542Z,94.17
2019-04-16T00:41:08.532Z,94.06
2019-04-16T00:42:08.539Z,93.65
2019-04-16T00:43:08.509Z,93.96
2019-04-16T00:44:08.554Z,94.27
2019-04-16T00:45:08.556Z,94.27
2019-04-16T00:46:11.446Z,94.06
2019-04-16T00:47:08.468Z,94.06
2019-04-16T00:48:08.451Z,94.27
2019-04-16T00:49:08.486Z,94.17
2019-04-16T00:50:08.464Z,94.54
2019-04-16T00:51:08.429Z,93.85
2019-04-16T00:52:08.432Z,93.85
2019-04-16T00:53:09.022Z,93.85
2019-04-16T00:54:10.339Z,94.58
2019-04-16T00:55:08.384Z,94.23
2019-04-16T00:56:08.480Z,94.12
2019-04-16T00:57:08.368Z,93.71
2019-04-16T00:58:08.584Z,93.60
2019-04-16T00:59:08.538Z,93.91
2019-04-16T01:00:08.327Z,93.91
2019-04-16T01:01:08.339Z,93.81
2019-04-16T01:02:08.442Z,94.02
2019-04-16T01:03:08.285Z,93.60
2019-04-16T01:04:08.302Z,94.23
2019-04-16T01:05:08.266Z,93.60
2019-04-16T01:06:08.476Z,93.81
2019-04-16T01:07:08.324Z,94.02
2019-04-16T01:08:08.483Z,93.71
2019-04-16T01:09:15.271Z,94.58
2019-04-16T01:10:08.234Z,94.23
2019-04-16T01:11:08.208Z,93.91
2019-04-16T01:12:08.193Z,94.27
2019-04-16T01:13:08.179Z,94.23
2019-04-16T01:14:08.186Z,93.96
2019-04-16T01:15:08.157Z,93.85
2019-04-16T01:16:08.154Z,93.71
2019-04-16T01:17:08.141Z,94.48
2019-04-16T01:18:09.003Z,94.27
2019-04-16T01:19:10.046Z,95.10
2019-04-16T01:20:11.648Z,94.79
2019-04-16T01:21:08.102Z,94.58
2019-04-16T01:22:08.083Z,94.68
2019-04-16T01:23:08.082Z,94.58
2019-04-16T01:24:08.067Z,94.79
2019-04-16T01:25:08.055Z,94.89
2019-04-16T01:26:08.150Z,95.20
2019-04-16T01:27:08.030Z,95.16
2019-04-16T01:28:08.019Z,95.31
2019-04-16T01:29:08.207Z,95.20
2019-04-16T01:30:08.000Z,95.26
2019-04-16T01:31:08.583Z,94.33
2019-04-16T01:32:11.253Z,94.02
2019-04-16T01:33:07.968Z,93.81
2019-04-16T01:34:07.962Z,94.12
2019-04-16T01:35:08.179Z,94.02
2019-04-16T01:36:08.137Z,94.54
2019-04-16T01:37:08.155Z,94.23
2019-04-16T01:38:07.956Z,93.91
2019-04-16T01:39:17.533Z,93.60
2019-04-16T01:40:08.896Z,93.91
2019-04-16T01:41:07.883Z,94.12
2019-04-16T01:42:07.881Z,94.48
2019-04-16T01:43:07.867Z,94.12
2019-04-16T01:44:07.873Z,94.48
2019-04-16T01:45:07.841Z,94.27
2019-04-16T01:46:07.836Z,93.65
2019-04-16T01:47:07.825Z,94.58
2019-04-16T01:48:08.287Z,94.21
2019-04-16T01:49:10.279Z,94.32
2019-04-16T01:50:07.814Z,94.84
2019-04-16T01:51:07.780Z,95.15
2019-04-16T01:52:07.770Z,95.36
2019-04-16T01:53:07.755Z,95.25
2019-04-16T01:54:07.750Z,95.36
2019-04-16T01:55:07.736Z,95.15
2019-04-16T01:56:07.742Z,94.94
2019-04-16T01:57:07.715Z,95.46
2019-04-16T01:58:07.707Z,95.61
2019-04-16T01:59:07.689Z,95.19
2019-04-16T02:00:08.492Z,95.71
2019-04-16T02:01:08.163Z,94.78
2019-04-16T02:02:07.682Z,94.78
2019-04-16T02:03:07.656Z,95.29
2019-04-16T02:04:07.637Z,95.65
2019-04-16T02:05:07.637Z,95.71
2019-04-16T02:06:07.615Z,95.92
2019-04-16T02:07:07.602Z,95.61
2019-04-16T02:08:07.662Z,95.50
2019-04-16T02:09:16.072Z,96.33
2019-04-16T02:10:08.837Z,96.33
2019-04-16T02:11:10.833Z,96.12
2019-04-16T02:12:07.789Z,96.02
2019-04-16T02:13:07.546Z,96.12
2019-04-16T02:14:07.563Z,95.81
2019-04-16T02:15:07.527Z,95.81
2019-04-16T02:16:07.516Z,96.17
2019-04-16T02:17:07.502Z,96.37
2019-04-16T02:18:07.492Z,96.58
2019-04-16T02:19:07.476Z,96.37
2019-04-16T02:20:07.640Z,96.27
2019-04-16T02:21:10.738Z,96.37
2019-04-16T02:22:07.447Z,96.27
2019-04-16T02:23:07.438Z,96.37
2019-04-16T02:24:07.426Z,96.37
2019-04-16T02:25:07.415Z,96.23
2019-04-16T02:26:07.441Z,96.44
2019-04-16T02:27:07.394Z,96.12
2019-04-16T02:28:07.388Z,96.54
2019-04-16T02:29:07.370Z,96.54
2019-04-16T02:30:07.363Z,96.23
2019-04-16T02:31:13.651Z,96.12
2019-04-16T02:32:08.359Z,96.12
2019-04-16T02:33:07.323Z,96.23
2019-04-16T02:34:07.317Z,96.02
2019-04-16T02:35:07.324Z,96.37
2019-04-16T02:36:07.296Z,96.58
2019-04-16T02:37:07.288Z,96.33
2019-04-16T02:38:12.264Z,96.33
2019-04-16T02:39:08.265Z,96.37
2019-04-16T02:40:07.261Z,96.37
2019-04-16T02:41:07.240Z,96.02
2019-04-16T02:42:07.263Z,96.54
2019-04-16T02:43:08.191Z,96.02
2019-04-16T02:44:14.081Z,96.06
2019-04-16T02:45:08.196Z,96.17
2019-04-16T02:46:07.194Z,96.48
2019-04-16T02:47:08.341Z,96.27
2019-04-16T02:48:07.275Z,96.58
2019-04-16T02:49:07.172Z,96.06
2019-04-16T02:50:07.207Z,96.42
2019-04-16T02:51:08.588Z,96.37
2019-04-16T02:52:14.771Z,96.37
2019-04-16T02:53:08.354Z,96.48
2019-04-16T02:54:07.356Z,96.37
2019-04-16T02:55:09.544Z,97.41
2019-04-16T02:56:07.123Z,97.04
2019-04-16T02:57:07.071Z,96.42
2019-04-16T02:58:07.070Z,97.41
2019-04-16T02:59:11.853Z,96.83
2019-04-16T03:00:08.033Z,97.00
2019-04-16T03:01:07.022Z,96.48
2019-04-16T03:02:07.127Z,96.69
2019-04-16T03:03:06.999Z,96.52
2019-04-16T03:04:06.993Z,96.27
2019-04-16T03:05:06.977Z,96.62
2019-04-16T03:06:06.970Z,97.25
2019-04-16T03:07:06.954Z,97.10
2019-04-16T03:08:06.971Z,97.52
2019-04-16T03:09:08.852Z,96.37
2019-04-16T03:10:12.094Z,96.17
2019-04-16T03:11:08.139Z,96.12
2019-04-16T03:12:07.002Z,96.02
2019-04-16T03:13:06.891Z,96.17
2019-04-16T03:14:06.910Z,96.48
2019-04-16T03:15:06.878Z,96.23
2019-04-16T03:16:07.602Z,96.48
2019-04-16T03:17:10.051Z,96.37
2019-04-16T03:18:06.845Z,96.17
2019-04-16T03:19:06.825Z,96.37
2019-04-16T03:20:06.858Z,96.37
2019-04-16T03:21:06.800Z,96.06
2019-04-16T03:22:06.797Z,96.17
2019-04-16T03:23:07.071Z,96.48
2019-04-16T03:24:09.339Z,96.27
2019-04-16T03:25:12.556Z,96.27
2019-04-16T03:26:07.770Z,96.31
2019-04-16T03:27:06.745Z,96.37
2019-04-16T03:28:06.834Z,96.17
2019-04-16T03:29:06.717Z,96.27
2019-04-16T03:30:06.715Z,96.58
2019-04-16T03:31:08.783Z,96.27
2019-04-16T03:32:06.814Z,96.27
2019-04-16T03:33:12.865Z,96.37
2019-04-16T03:34:07.670Z,95.96
2019-04-16T03:35:06.659Z,96.48
2019-04-16T03:36:06.643Z,96.17
2019-04-16T03:37:06.631Z,95.86
2019-04-16T03:38:06.740Z,96.37
2019-04-16T03:39:06.637Z,96.17
2019-04-16T03:40:16.120Z,96.27
2019-04-16T03:41:07.586Z,96.17
2019-04-16T03:42:06.587Z,96.58
2019-04-16T03:43:06.572Z,96.27
2019-04-16T03:44:06.668Z,96.27
2019-04-16T03:45:09.193Z,96.48
2019-04-16T03:46:06.541Z,96.37
2019-04-16T03:47:06.525Z,95.86
2019-04-16T03:48:06.511Z,96.48
2019-04-16T03:49:06.508Z,96.52
2019-04-16T03:50:06.517Z,96.52
2019-04-16T03:51:06.495Z,96.11
2019-04-16T03:52:08.825Z,96.58
2019-04-16T03:53:06.615Z,96.62
2019-04-16T03:54:06.447Z,96.37
2019-04-16T03:55:06.437Z,96.37
2019-04-16T03:56:06.629Z,96.21
2019-04-16T03:57:06.415Z,96.48
2019-04-16T03:58:07.324Z,96.62
2019-04-16T03:59:10.777Z,96.37
2019-04-16T04:00:11.092Z,96.42
2019-04-16T04:01:07.397Z,96.37
2019-04-16T04:02:06.361Z,96.31
2019-04-16T04:03:06.349Z,96.62
2019-04-16T04:04:06.344Z,96.37
2019-04-16T04:05:07.235Z,96.11
2019-04-16T04:06:07.876Z,96.21
2019-04-16T04:07:08.752Z,96.48
2019-04-16T04:08:07.393Z,96.31
2019-04-16T04:09:06.288Z,96.79
2019-04-16T04:10:06.503Z,96.31
2019-04-16T04:11:09.513Z,96.73
2019-04-16T04:12:06.257Z,96.37
2019-04-16T04:13:06.265Z,96.11
2019-04-16T04:14:06.234Z,96.89
2019-04-16T04:15:06.221Z,96.69
2019-04-16T04:16:06.218Z,96.37
2019-04-16T04:17:07.348Z,97.52
2019-04-16T04:18:07.989Z,96.79
2019-04-16T04:19:07.198Z,96.37
2019-04-16T04:20:06.238Z,96.27
2019-04-16T04:21:06.165Z,96.17
2019-04-16T04:22:06.149Z,96.37
2019-04-16T04:23:06.481Z,96.58
2019-04-16T04:24:06.257Z,96.48
2019-04-16T04:25:06.613Z,96.58
2019-04-16T04:26:08.825Z,96.58
2019-04-16T04:27:06.091Z,95.81
2019-04-16T04:28:06.081Z,95.81
2019-04-16T04:29:06.445Z,95.92
2019-04-16T04:30:06.056Z,95.81
2019-04-16T04:31:06.068Z,96.27
2019-04-16T04:32:06.038Z,95.50
2019-04-16T04:33:08.896Z,95.34
2019-04-16T04:34:06.017Z,95.29
2019-04-16T04:35:06.036Z,94.98
2019-04-16T04:36:05.992Z,95.50
2019-04-16T04:37:06.078Z,95.50
2019-04-16T04:38:05.983Z,95.50
2019-04-16T04:39:09.016Z,95.61
2019-04-16T04:40:05.951Z,95.09
2019-04-16T04:41:05.945Z,95.46
2019-04-16T04:42:05.934Z,95.50
2019-04-16T04:43:06.027Z,95.67
2019-04-16T04:44:05.909Z,95.15
2019-04-16T04:45:09.181Z,94.73
2019-04-16T04:46:05.891Z,94.53
2019-04-16T04:47:05.883Z,95.25
2019-04-16T04:48:05.870Z,94.42
2019-04-16T04:49:05.883Z,94.32
2019-04-16T04:50:05.852Z,93.90
2019-04-16T04:51:08.182Z,93.85
2019-04-16T04:52:05.829Z,93.75
2019-04-16T04:53:05.816Z,93.96
2019-04-16T04:54:05.806Z,93.96
2019-04-16T04:55:05.812Z,93.54
2019-04-16T04:56:05.787Z,93.54
2019-04-16T04:57:05.774Z,93.54
2019-04-16T04:58:05.758Z,93.96
2019-04-16T04:59:06.036Z,93.44
2019-04-16T05:00:08.415Z,93.91
2019-04-16T05:01:05.751Z,93.54
2019-04-16T05:02:05.724Z,93.19
2019-04-16T05:03:05.713Z,92.98
2019-04-16T05:04:05.696Z,92.72
2019-04-16T05:05:05.686Z,92.61
2019-04-16T05:06:05.678Z,92.47
2019-04-16T05:07:05.692Z,92.78
2019-04-16T05:08:05.656Z,92.68
2019-04-16T05:09:05.649Z,92.78
2019-04-16T05:10:07.576Z,92.43
2019-04-16T05:11:05.627Z,92.01
2019-04-16T05:12:08.124Z,91.80
2019-04-16T05:13:05.705Z,92.01
2019-04-16T05:14:05.588Z,91.80
2019-04-16T05:15:05.582Z,91.14
2019-04-16T05:16:07.003Z,91.24
2019-04-16T05:17:06.409Z,90.58
2019-04-16T05:18:06.027Z,90.89
2019-04-16T05:19:05.585Z,89.81
2019-04-16T05:20:05.526Z,90.23
2019-04-16T05:21:05.518Z,88.90
2019-04-16T05:22:05.500Z,86.90
2019-04-16T05:23:05.491Z,85.58
2019-04-16T05:24:05.480Z,82.96
2019-04-16T05:25:05.494Z,82.30
2019-04-16T05:26:05.489Z,81.75
2019-04-16T05:27:08.463Z,79.79
2019-04-16T05:28:05.439Z,80.96
2019-04-16T05:29:05.433Z,80.68
2019-04-16T05:30:05.414Z,79.96
2019-04-16T05:31:05.452Z,79.30
2019-04-16T05:32:05.401Z,79.16
2019-04-16T05:33:06.225Z,79.47
2019-04-16T05:34:05.996Z,78.86
2019-04-16T05:35:09.235Z,78.30
2019-04-16T05:36:05.354Z,77.48
2019-04-16T05:37:05.365Z,76.21
2019-04-16T05:38:05.332Z,77.00
2019-04-16T05:39:05.325Z,77.58
2019-04-16T05:40:05.309Z,76.86
2019-04-16T05:41:13.175Z,76.86
2019-04-16T05:42:06.411Z,76.90
2019-04-16T05:43:05.280Z,79.55
2019-04-16T05:44:05.270Z,81.03
2019-04-16T05:45:05.472Z,81.99
2019-04-16T05:46:08.330Z,82.14
2019-04-16T05:47:05.234Z,83.00
2019-04-16T05:48:05.328Z,83.13
2019-04-16T05:49:05.213Z,82.82
2019-04-16T05:50:05.200Z,81.92
2019-04-16T05:51:05.189Z,81.75
2019-04-16T05:52:05.177Z,81.89
2019-04-16T05:53:05.498Z,82.10
2019-04-16T05:54:05.213Z,81.92
2019-04-16T05:55:05.155Z,81.47
2019-04-16T05:56:05.132Z,80.95
2019-04-16T05:57:05.133Z,80.75
2019-04-16T05:58:05.115Z,78.96
2019-04-16T05:59:05.099Z,78.75
2019-04-16T06:00:09.353Z,78.82
2019-04-16T06:01:06.078Z,77.58
2019-04-16T06:02:05.131Z,78.61
2019-04-16T06:03:05.054Z,75.97
2019-04-16T06:04:05.046Z,74.94
2019-04-16T06:05:05.039Z,74.02
2019-04-16T06:06:05.046Z,74.02
2019-04-16T06:07:07.620Z,73.71
2019-04-16T06:08:06.304Z,70.57
2019-04-16T06:09:04.994Z,67.98
2019-04-16T06:10:06.929Z,70.64
2019-04-16T06:11:04.970Z,71.18
2019-04-16T06:12:05.884Z,74.63
2019-04-16T06:13:04.944Z,69.68
2019-04-16T06:14:04.954Z,66.92
2019-04-16T06:15:04.933Z,69.24
2019-04-16T06:16:04.923Z,72.82
2019-04-16T06:17:04.918Z,74.84
2019-04-16T06:18:05.385Z,74.05
2019-04-16T06:19:04.883Z,75.21
2019-04-16T06:20:04.879Z,75.29
2019-04-16T06:21:04.866Z,74.98
2019-04-16T06:22:04.861Z,74.70
2019-04-16T06:23:04.845Z,75.42
2019-04-16T06:24:04.877Z,75.97
2019-04-16T06:25:09.225Z,77.37
2019-04-16T06:26:05.806Z,75.42
2019-04-16T06:27:04.797Z,76.76
2019-04-16T06:28:04.790Z,75.01
2019-04-16T06:29:04.788Z,73.27
2019-04-16T06:30:04.788Z,72.38
2019-04-16T06:31:05.661Z,70.64
2019-04-16T06:32:04.736Z,69.99
2019-04-16T06:33:04.732Z,71.97
2019-04-16T06:34:04.722Z,70.77
2019-04-16T06:35:04.711Z,71.04
2019-04-16T06:36:04.716Z,73.71
2019-04-16T06:37:04.686Z,72.82
2019-04-16T06:38:04.674Z,73.61
2019-04-16T06:39:04.668Z,71.86
2019-04-16T06:40:04.653Z,71.80
2019-04-16T06:41:04.645Z,72.92
2019-04-16T06:42:04.674Z,73.74
2019-04-16T06:43:04.620Z,74.57
2019-04-16T06:44:04.607Z,76.42
2019-04-16T06:45:05.003Z,76.38
2019-04-16T06:46:05.484Z,75.93
2019-04-16T06:47:04.575Z,74.46
2019-04-16T06:48:04.584Z,75.01
2019-04-16T06:49:04.554Z,73.68
2019-04-16T06:50:04.546Z,75.42
2019-04-16T06:51:04.529Z,75.04
2019-04-16T06:52:04.523Z,75.15
2019-04-16T06:53:04.513Z,74.84
2019-04-16T06:54:04.520Z,75.80
2019-04-16T06:55:04.485Z,76.45
2019-04-16T06:56:05.536Z,76.51
2019-04-16T06:57:04.469Z,76.28
2019-04-16T06:58:04.466Z,74.91
2019-04-16T06:59:04.444Z,75.04
2019-04-16T07:00:07.164Z,75.56
2019-04-16T07:01:06.744Z,76.75
2019-04-16T07:02:04.425Z,75.15
2019-04-16T07:03:04.410Z,75.25
2019-04-16T07:04:06.706Z,76.21
2019-04-16T07:05:04.382Z,76.93
2019-04-16T07:06:04.815Z,76.72
2019-04-16T07:07:08.025Z,76.42
2019-04-16T07:08:04.343Z,77.23
2019-04-16T07:09:07.947Z,76.38
2019-04-16T07:10:04.321Z,75.38
2019-04-16T07:11:04.314Z,74.46
2019-04-16T07:12:04.320Z,74.57
2019-04-16T07:13:04.298Z,75.08
2019-04-16T07:14:04.282Z,75.11
2019-04-16T07:15:04.269Z,74.77
2019-04-16T07:16:04.260Z,75.11
2019-04-16T07:17:04.243Z,75.42
2019-04-16T07:18:05.551Z,74.66
2019-04-16T07:19:04.222Z,74.73
2019-04-16T07:20:04.800Z,74.02
2019-04-16T07:21:04.207Z,73.68
2019-04-16T07:22:04.193Z,73.23
2019-04-16T07:23:04.183Z,71.80
2019-04-16T07:24:04.208Z,72.65
2019-04-16T07:25:05.564Z,72.31
2019-04-16T07:26:04.537Z,71.77
2019-04-16T07:27:04.249Z,71.56
2019-04-16T07:28:04.137Z,70.64
2019-04-16T07:29:04.219Z,69.93
2019-04-16T07:30:06.589Z,69.01
2019-04-16T07:31:04.181Z,69.55
2019-04-16T07:32:04.187Z,70.43
2019-04-16T07:33:04.074Z,71.59
2019-04-16T07:34:04.079Z,71.18
2019-04-16T07:35:04.048Z,71.25
2019-04-16T07:36:04.062Z,69.69
2019-04-16T07:37:04.029Z,66.05
2019-04-16T07:38:05.677Z,65.48
2019-04-16T07:39:05.277Z,64.25
2019-04-16T07:40:08.332Z,64.15
2019-04-16T07:41:05.006Z,64.31
2019-04-16T07:42:10.529Z,66.21
2019-04-16T07:43:04.954Z,67.41
2019-04-16T07:44:09.595Z,66.02
2019-04-16T07:45:04.972Z,63.64
2019-04-16T07:46:03.928Z,64.90
2019-04-16T07:47:03.936Z,64.36
2019-04-16T07:48:06.066Z,64.29
2019-04-16T07:49:03.893Z,63.31
2019-04-16T07:50:03.887Z,62.97
2019-04-16T07:51:04.860Z,61.56
2019-04-16T07:52:06.966Z,61.82
2019-04-16T07:53:03.874Z,63.07
2019-04-16T07:54:03.853Z,62.36
2019-04-16T07:55:03.834Z,63.42
2019-04-16T07:56:03.815Z,62.37
2019-04-16T07:57:03.803Z,61.22
2019-04-16T07:58:03.794Z,60.54
2019-04-16T07:59:03.805Z,60.24
2019-04-16T08:00:08.255Z,59.63
2019-04-16T08:01:04.767Z,61.30
2019-04-16T08:02:03.757Z,58.73
2019-04-16T08:03:03.740Z,58.67
2019-04-16T08:04:03.738Z,58.09
2019-04-16T08:05:07.455Z,56.39
2019-04-16T08:06:04.702Z,59.06
2019-04-16T08:07:03.702Z,61.72
2019-04-16T08:08:03.686Z,63.38
2019-04-16T08:09:03.685Z,63.24
2019-04-16T08:10:03.746Z,66.13
2019-04-16T08:11:03.679Z,64.32
2019-04-16T08:12:03.638Z,64.44
2019-04-16T08:13:03.701Z,61.83
2019-04-16T08:14:08.893Z,62.72
2019-04-16T08:15:13.863Z,62.04
2019-04-16T08:16:04.619Z,61.82
2019-04-16T08:17:03.586Z,59.23
2019-04-16T08:18:03.579Z,57.40
2019-04-16T08:19:03.805Z,56.79
2019-04-16T08:20:03.554Z,58.06
2019-04-16T08:21:10.156Z,58.88
2019-04-16T08:22:04.675Z,60.74
2019-04-16T08:23:03.532Z,59.92
2019-04-16T08:24:03.507Z,60.61
2019-04-16T08:25:04.178Z,60.28
2019-04-16T08:26:04.787Z,59.99
2019-04-16T08:27:04.719Z,58.49
2019-04-16T08:28:06.579Z,56.48
2019-04-16T08:29:03.454Z,55.83
2019-04-16T08:30:04.259Z,56.82
2019-04-16T08:31:03.433Z,54.74
2019-04-16T08:32:03.478Z,55.93
2019-04-16T08:33:03.421Z,56.95
2019-04-16T08:34:03.460Z,56.36
2019-04-16T08:35:03.396Z,54.61
2019-04-16T08:36:03.375Z,55.85
2019-04-16T08:37:03.369Z,56.10
2019-04-16T08:38:03.425Z,55.57
2019-04-16T08:39:06.463Z,56.23
2019-04-16T08:40:03.362Z,56.61
2019-04-16T08:41:03.324Z,55.82
2019-04-16T08:42:03.311Z,54.00
2019-04-16T08:43:03.300Z,53.96
2019-04-16T08:44:04.394Z,53.12
2019-04-16T08:45:07.309Z,51.56
2019-04-16T08:46:04.291Z,52.49
2019-04-16T08:47:03.267Z,51.18
2019-04-16T08:48:03.247Z,54.00
2019-04-16T08:49:03.241Z,56.54
2019-04-16T08:50:03.225Z,57.86
2019-04-16T08:51:05.219Z,59.56
2019-04-16T08:52:03.228Z,60.04
2019-04-16T08:53:03.195Z,56.21
2019-04-16T08:54:03.189Z,54.00
2019-04-16T08:55:03.177Z,53.17
2019-04-16T08:56:03.158Z,54.03
2019-04-16T08:57:03.158Z,54.23
2019-04-16T08:58:05.876Z,56.10
2019-04-16T08:59:03.137Z,55.83
2019-04-16T09:00:03.119Z,57.04
2019-04-16T09:01:03.108Z,56.41
2019-04-16T09:02:03.312Z,54.38
2019-04-16T09:03:03.089Z,53.96
2019-04-16T09:04:03.307Z,52.87
2019-04-16T09:05:05.862Z,50.85
2019-04-16T09:06:04.385Z,49.07
2019-04-16T09:07:11.423Z,49.25
2019-04-16T09:08:12.264Z,47.74
2019-04-16T09:09:12.475Z,46.50
2019-04-16T09:10:16.208Z,49.44
2019-04-16T09:11:04.532Z,51.28
2019-04-16T09:12:07.971Z,53.65
2019-04-16T09:13:05.160Z,53.12
2019-04-16T09:14:02.967Z,50.70
2019-04-16T09:15:02.976Z,49.16
2019-04-16T09:16:02.939Z,49.37
2019-04-16T09:17:02.937Z,49.15
2019-04-16T09:18:02.919Z,49.62
2019-04-16T09:19:02.920Z,50.32
2019-04-16T09:20:05.640Z,50.07
2019-04-16T09:21:02.917Z,49.35
2019-04-16T09:22:02.884Z,48.46
2019-04-16T09:23:02.876Z,48.11
2019-04-16T09:24:08.498Z,46.51
2019-04-16T09:25:03.844Z,45.21
2019-04-16T09:26:13.015Z,49.54
2019-04-16T09:27:03.847Z,50.55
2019-04-16T09:28:02.814Z,47.55
2019-04-16T09:29:08.534Z,47.03
2019-04-16T09:30:03.800Z,46.46
2019-04-16T09:31:02.788Z,46.73
2019-04-16T09:32:02.767Z,45.12
2019-04-16T09:33:02.779Z,46.87
2019-04-16T09:34:06.460Z,46.50
2019-04-16T09:35:09.738Z,45.35
2019-04-16T09:36:03.729Z,42.78
2019-04-16T09:37:02.718Z,45.14
2019-04-16T09:38:02.707Z,45.70
2019-04-16T09:39:02.723Z,45.58
2019-04-16T09:40:15.562Z,45.58
2019-04-16T09:41:03.674Z,43.44
2019-04-16T09:42:02.661Z,44.01
2019-04-16T09:43:15.831Z,40.84
2019-04-16T09:44:03.667Z,40.77
2019-04-16T09:45:05.053Z,40.48
2019-04-16T09:46:10.117Z,40.75
2019-04-16T09:47:05.317Z,43.24
2019-04-16T09:48:03.825Z,43.54
2019-04-16T09:49:04.876Z,43.60
2019-04-16T09:50:02.609Z,41.87
2019-04-16T09:51:02.560Z,42.38
2019-04-16T09:52:04.028Z,41.65
2019-04-16T09:53:02.546Z,42.70
2019-04-16T09:54:02.526Z,43.16
2019-04-16T09:55:02.522Z,41.73
2019-04-16T09:56:02.532Z,40.83
2019-04-16T09:57:02.518Z,43.36
2019-04-16T09:58:05.979Z,43.06
2019-04-16T09:59:02.475Z,42.86
2019-04-16T10:00:02.469Z,43.32
2019-04-16T10:01:02.468Z,43.46
2019-04-16T10:02:02.462Z,43.06
2019-04-16T10:03:02.437Z,42.58
2019-04-16T10:04:02.423Z,43.20
2019-04-16T10:05:02.414Z,43.12
2019-04-16T10:06:05.360Z,43.26
2019-04-16T10:07:02.388Z,43.16
2019-04-16T10:08:02.408Z,41.53
2019-04-16T10:09:02.370Z,41.61
2019-04-16T10:10:02.359Z,43.16
2019-04-16T10:11:05.734Z,43.26
2019-04-16T10:12:05.057Z,42.32
2019-04-16T10:13:03.370Z,42.11
2019-04-16T10:14:02.329Z,42.13
2019-04-16T10:15:02.304Z,41.87
2019-04-16T10:16:02.298Z,39.62
2019-04-16T10:17:02.289Z,40.69
2019-04-16T10:18:02.431Z,37.41
2019-04-16T10:19:07.807Z,38.07
2019-04-16T10:20:03.268Z,36.63
2019-04-16T10:21:02.245Z,39.76
2019-04-16T10:22:02.232Z,40.19
2019-04-16T10:23:02.221Z,40.99
2019-04-16T10:24:02.205Z,39.88
2019-04-16T10:25:02.230Z,40.97
2019-04-16T10:26:02.200Z,41.97
2019-04-16T10:27:04.399Z,40.97
2019-04-16T10:28:04.920Z,39.28
2019-04-16T10:29:02.178Z,39.10
2019-04-16T10:30:02.155Z,39.82
2019-04-16T10:31:02.167Z,40.06
2019-04-16T10:32:02.127Z,41.25
2019-04-16T10:33:02.115Z,40.92
2019-04-16T10:34:02.119Z,39.01
2019-04-16T10:35:02.122Z,39.10
2019-04-16T10:36:04.882Z,39.98
2019-04-16T10:37:02.118Z,39.56
2019-04-16T10:38:02.068Z,39.45
2019-04-16T10:39:02.073Z,38.92
2019-04-16T10:40:04.789Z,38.25
2019-04-16T10:41:02.057Z,34.94
2019-04-16T10:42:02.033Z,35.80
2019-04-16T10:43:02.059Z,38.06
2019-04-16T10:44:02.034Z,39.12
2019-04-16T10:45:01.981Z,40.33
2019-04-16T10:46:01.986Z,39.56
2019-04-16T10:47:01.991Z,39.12
2019-04-16T10:48:01.948Z,38.24
2019-04-16T10:49:01.977Z,39.20
2019-04-16T10:50:01.948Z,41.07
2019-04-16T10:51:01.941Z,36.58
2019-04-16T10:52:01.927Z,36.55
2019-04-16T10:53:01.899Z,36.28
2019-04-16T10:54:01.884Z,38.40
2019-04-16T10:55:01.931Z,39.12
2019-04-16T10:56:01.899Z,38.49
2019-04-16T10:57:01.877Z,38.35
2019-04-16T10:58:01.853Z,38.42
2019-04-16T10:59:01.885Z,37.46
2019-04-16T11:00:01.867Z,39.28
2019-04-16T11:01:01.925Z,41.15
2019-04-16T11:02:01.795Z,40.64
2019-04-16T11:03:01.790Z,41.67
2019-04-16T11:04:01.777Z,38.84
2019-04-16T11:05:03.027Z,38.00
2019-04-16T11:06:01.762Z,38.68
2019-04-16T11:07:01.787Z,39.06
2019-04-16T11:08:04.280Z,39.26
2019-04-16T11:09:02.722Z,39.23
2019-04-16T11:10:01.722Z,38.81
2019-04-16T11:11:01.760Z,38.68
2019-04-16T11:12:04.825Z,41.17
2019-04-16T11:13:01.701Z,42.52
2019-04-16T11:14:01.678Z,43.24
2019-04-16T11:15:01.681Z,42.44
2019-04-16T11:16:01.680Z,41.73
2019-04-16T11:17:01.655Z,42.76
2019-04-16T11:18:01.637Z,42.96
2019-04-16T11:19:01.665Z,43.20
2019-04-16T11:20:01.705Z,43.63
2019-04-16T11:21:01.588Z,43.83
2019-04-16T11:22:03.874Z,43.02
2019-04-16T11:23:01.576Z,44.94
2019-04-16T11:24:01.594Z,43.23
2019-04-16T11:25:01.575Z,43.12
2019-04-16T11:26:01.542Z,43.73
2019-04-16T11:27:01.520Z,43.80
2019-04-16T11:28:01.523Z,44.03
2019-04-16T11:29:01.525Z,44.62
2019-04-16T11:30:01.526Z,44.42
2019-04-16T11:31:01.513Z,43.71
2019-04-16T11:32:01.467Z,44.01
2019-04-16T11:33:01.483Z,43.60
2019-04-16T11:34:01.454Z,43.79
2019-04-16T11:35:01.472Z,42.68
2019-04-16T11:36:16.390Z,43.10
2019-04-16T11:37:07.409Z,44.79
2019-04-16T11:38:02.656Z,43.46
2019-04-16T11:39:01.432Z,43.00
2019-04-16T11:40:01.468Z,43.66
2019-04-16T11:41:01.412Z,43.66
2019-04-16T11:42:01.437Z,43.66
2019-04-16T11:43:01.389Z,44.45
2019-04-16T11:44:14.151Z,43.04
2019-04-16T11:45:02.325Z,43.93
2019-04-16T11:46:01.355Z,43.02
2019-04-16T11:47:01.320Z,42.41
2019-04-16T11:48:01.315Z,45.62
2019-04-16T11:49:01.321Z,42.68
2019-04-16T11:50:01.315Z,43.20
2019-04-16T11:51:01.304Z,43.10
2019-04-16T11:52:01.285Z,43.60
2019-04-16T11:53:01.256Z,43.20
2019-04-16T11:54:01.239Z,45.32
2019-04-16T11:55:01.250Z,44.21
2019-04-16T11:56:01.259Z,43.22
2019-04-16T11:57:01.234Z,45.03
2019-04-16T11:58:01.219Z,44.33
2019-04-16T11:59:01.200Z,46.75
2019-04-16T12:00:07.622Z,45.12
2019-04-16T12:01:02.256Z,43.93
2019-04-16T12:02:01.173Z,46.50
2019-04-16T12:03:01.170Z,43.79
2019-04-16T12:04:01.129Z,43.32
2019-04-16T12:05:01.145Z,44.43
2019-04-16T12:06:01.119Z,44.95
2019-04-16T12:07:01.112Z,45.16
2019-04-16T12:08:01.100Z,44.73
2019-04-16T12:09:01.070Z,45.44
2019-04-16T12:10:01.075Z,44.81
2019-04-16T12:11:01.049Z,43.73
2019-04-16T12:12:01.048Z,45.14
2019-04-16T12:13:03.458Z,44.33
2019-04-16T12:14:04.231Z,44.85
2019-04-16T12:15:02.008Z,45.36
2019-04-16T12:16:01.044Z,45.06
2019-04-16T12:17:01.007Z,45.82
2019-04-16T12:18:00.967Z,43.51
2019-04-16T12:19:00.980Z,43.68
2019-04-16T12:20:01.078Z,45.50
2019-04-16T12:21:00.940Z,44.69
2019-04-16T12:22:00.965Z,43.79
2019-04-16T12:23:00.924Z,44.89
2019-04-16T12:24:00.917Z,43.68
2019-04-16T12:25:00.912Z,44.29
2019-04-16T12:26:00.887Z,44.01
2019-04-16T12:27:00.920Z,43.62
2019-04-16T12:28:01.869Z,45.84
2019-04-16T12:29:00.886Z,45.14
2019-04-16T12:30:00.843Z,44.93
2019-04-16T12:31:00.888Z,44.93
2019-04-16T12:32:03.700Z,44.13
2019-04-16T12:33:00.807Z,44.83
2019-04-16T12:34:00.797Z,45.26
2019-04-16T12:35:00.818Z,44.98
2019-04-16T12:36:00.802Z,45.46
2019-04-16T12:37:00.800Z,44.87
2019-04-16T12:38:00.766Z,45.68
2019-04-16T12:39:00.771Z,45.28
2019-04-16T12:40:00.739Z,45.46
2019-04-16T12:41:00.733Z,45.54
2019-04-16T12:42:00.718Z,46.33
2019-04-16T12:43:00.769Z,44.01
2019-04-16T12:44:00.704Z,42.90
2019-04-16T12:45:00.706Z,44.53
2019-04-16T12:46:00.673Z,43.91
2019-04-16T12:47:00.667Z,44.02
2019-04-16T12:48:00.648Z,43.57
2019-04-16T12:49:00.662Z,43.91
2019-04-16T12:50:00.639Z,45.32
2019-04-16T12:51:00.660Z,45.42
2019-04-16T12:52:00.613Z,47.52